Flight Track Log - Related Links

Times and Time Zones

All times are in EDT time to prevent confusion due to time zone crossing. See the N373RS flight status page for this flight to view local times or setup timezone preferences in your user account.

Time Position Orientation Groundspeed Altitude Reporting Facility
EDT Latitude Longitude Course Direction KTS MPH feet Rate Location/Type
Mon 10:03:31 AM 42.2069 -85.5419 159° South 189 217 2,100  Level Chicago Center
Mon 10:04:33 AM 42.1450 -85.5092 159° South 237 273 5,500 3,871 Climbing Chicago Center
Mon 10:05:35 AM 42.1006 -85.4136 122° Southeast 274 315 10,100 3,983 Climbing Chicago Center
Mon 10:06:32 AM 42.0756 -85.3031 107° East 292 336 13,400 3,179 Climbing Cleveland Center
Mon 10:07:32 AM 42.0472 -85.1808 107° East 323 372 16,300 2,700 Climbing Cleveland Center
Mon 10:08:32 AM 42.0128 -85.0469 109° East 357 411 18,800 1,350 Climbing Cleveland Center
Mon 10:09:32 AM 41.9731 -84.8875 108° East 402 463 19,000 100 Climbing Cleveland Center
Mon 10:10:32 AM 41.9461 -84.7069 101° East 450 518 19,000  Level Cleveland Center
Mon 10:11:32 AM 41.9253 -84.5325 99° East 472 543 19,000  Level Cleveland Center
Mon 10:12:32 AM 41.8789 -84.3622 110° East 483 556 19,000  Level Cleveland Center
Mon 10:13:32 AM 41.8053 -84.1908 120° Southeast 478 550 19,000  Level Cleveland Center
Mon 10:14:32 AM 41.7411 -84.0342 119° Southeast 478 550 19,000  Level Cleveland Center
Mon 10:15:32 AM 41.6769 -83.8778 119° Southeast 483 556 19,000  Level Cleveland Center
Mon 10:16:32 AM 41.6125 -83.7217 119° Southeast 481 554 19,000  Level Cleveland Center
Mon 10:17:32 AM 41.5481 -83.5658 119° Southeast 481 554 19,000  Level Cleveland Center
Mon 10:18:32 AM 41.4831 -83.4103 119° Southeast 476 548 19,000  Level Cleveland Center
Mon 10:19:32 AM 41.4161 -83.2525 119° Southeast 481 554 19,000  Level Cleveland Center
Mon 10:20:32 AM 41.3528 -83.1003 119° Southeast 475 547 19,000  Level Cleveland Center
Mon 10:21:32 AM 41.2853 -82.9431 120° Southeast 475 547 19,000 -50 Level Cleveland Center
Mon 10:22:32 AM 41.2153 -82.7969 122° Southeast 475 547 18,900 -650 Descending Cleveland Center
Mon 10:23:32 AM 41.1428 -82.6483 123° Southeast 475 547 17,700 -1,600 Descending Cleveland Center
Mon 10:24:32 AM 41.0767 -82.4975 120° Southeast 475 547 15,700 -1,450 Descending Cleveland Center
Mon 10:25:32 AM 41.0164 -82.3664 121° Southeast 449 517 14,800 -1,500 Descending Cleveland Center
Mon 10:26:32 AM 40.9578 -82.2328 120° Southeast 421 484 12,700 -2,550 Descending Cleveland Center
Mon 10:27:32 AM 40.9158 -82.0997 113° Southeast 407 468 9,700 -2,350 Descending Cleveland Center
Mon 10:28:32 AM 40.9175 -81.9844 89° East 344 396 8,000 -850 Descending Cleveland Center
Mon 10:29:32 AM 40.9414 -81.8833 73° East 300 345 8,000 -1,000 Level Cleveland Center
Mon 10:30:32 AM 40.9656 -81.7819 72° East 283 326 6,000 -1,900 Descending Cleveland Center
Mon 10:31:32 AM 40.9894 -81.6833 72° East 283 326 4,200 -1,000 Descending Cleveland Center
Mon 10:32:32 AM 41.0092 -81.5983 73° East 260 299 4,000 -700 Descending Cleveland Center
Mon 10:33:32 AM 41.0306 -81.5300 67° East 216 249 2,800 -650 Descending Cleveland Center
Mon 10:34:32 AM 41.0289 -81.4667 92° East 177 204 2,700 -350 Descending Cleveland Center
Mon 10:35:32 AM 41.0356 -81.4089 81° East 160 184 2,100 -500 Descending Cleveland Center
Mon 10:36:32 AM 41.0519 -81.4367 308° West 47 54 1,700 -400 Descending Cleveland Center
Mon 10:38:00 AM 41.0333 -81.4667 236° Southwest  Level FlightAware Approximate
Mon 10:45:00 AM 41.0375 -81.4669 236° Southwest  Level Estimated
Mon 10:46:00 AM 41.0333 -81.4667 236° Southwest  Level FlightAware Approximate
Mon 10:47:00 AM 41.0375 -81.4669 236° Southwest  Level Estimated

Login

Don't have an account? Register now (free) for customized features, flight alerts, and more!